createdAt,value
2022-09-05T00:02:24.395Z,101188.16
2022-09-05T00:05:05.889Z,101176.66
2022-09-05T00:07:59.325Z,101171.06
2022-09-05T00:10:46.616Z,101182.59
2022-09-05T00:13:33.283Z,101186.81
2022-09-05T00:16:19.565Z,101193.41
2022-09-05T00:24:20.851Z,101189.94
2022-09-05T00:24:34.560Z,101182.47
2022-09-05T00:27:58.660Z,101176.19
2022-09-05T00:31:51.612Z,101184.06
2022-09-05T00:33:37.750Z,101174.16
2022-09-05T00:36:25.972Z,101171.22
2022-09-05T00:39:01.303Z,101169.97
2022-09-05T00:41:34.268Z,101171.22
2022-09-05T00:44:05.619Z,101153.66
2022-09-05T00:46:38.590Z,101143.19
2022-09-05T00:49:18.916Z,101160.19
2022-09-05T00:51:56.069Z,101159.75
2022-09-05T00:54:46.171Z,101156.47
2022-09-05T00:57:43.600Z,101152.72
2022-09-05T01:00:17.904Z,101156.47
2022-09-05T01:03:09.944Z,101144.47
2022-09-05T01:06:13.860Z,101151.00
2022-09-05T01:09:07.576Z,101147.63
2022-09-05T01:12:02.348Z,101136.53
2022-09-05T01:14:48.527Z,101148.38
2022-09-05T01:17:31.458Z,101146.16
2022-09-05T01:20:19.534Z,101142.78
2022-09-05T01:23:08.518Z,101119.78
2022-09-05T01:25:55.536Z,101137.63
2022-09-05T01:29:15.048Z,101141.38
2022-09-05T01:31:29.288Z,101149.16
2022-09-05T01:34:14.245Z,101143.88
2022-09-05T01:36:58.331Z,101120.75
2022-09-05T01:40:15.301Z,101145.13
2022-09-05T01:42:38.303Z,101138.69
2022-09-05T01:45:17.417Z,101127.31
2022-09-05T01:47:54.728Z,101136.00
2022-09-05T01:50:40.655Z,101105.19
2022-09-05T01:53:28.051Z,101108.16
2022-09-05T01:56:14.971Z,101100.78
2022-09-05T01:58:51.063Z,101133.53
2022-09-05T02:01:32.929Z,101133.25
2022-09-05T02:04:24.267Z,101116.72
2022-09-05T02:07:19.279Z,101121.06
2022-09-05T02:10:23.348Z,101126.72
2022-09-05T02:13:02.919Z,101116.41
2022-09-05T02:15:57.752Z,101093.66
2022-09-05T02:18:48.085Z,101112.22
2022-09-05T02:21:27.349Z,101114.97
2022-09-05T02:24:06.431Z,101117.63
2022-09-05T02:26:41.163Z,101112.47
2022-09-05T02:29:29.020Z,101110.56
2022-09-05T02:32:04.748Z,101120.22
2022-09-05T02:34:46.159Z,101100.38
2022-09-05T02:38:15.591Z,101110.44
2022-09-05T02:45:04.076Z,101113.53
2022-09-05T02:45:09.523Z,101098.91
2022-09-05T02:46:19.369Z,101114.78
2022-09-05T02:48:55.848Z,101086.94
2022-09-05T02:57:41.149Z,101113.00
2022-09-05T02:57:46.440Z,101098.75
2022-09-05T02:58:05.242Z,101105.44
2022-09-05T03:00:23.127Z,101107.16
2022-09-05T03:03:22.024Z,101111.19
2022-09-05T03:05:58.114Z,101108.78
2022-09-05T03:08:55.436Z,101110.94
2022-09-05T03:11:58.630Z,101112.22
2022-09-05T03:15:20.797Z,101120.97
2022-09-05T03:18:28.090Z,101112.41
2022-09-05T03:21:39.703Z,101135.63
2022-09-05T03:24:56.243Z,101118.19
2022-09-05T03:28:06.810Z,101108.13
2022-09-05T03:30:52.227Z,101108.78
2022-09-05T03:33:43.401Z,101111.66
2022-09-05T03:36:54.414Z,101121.66
2022-09-05T03:39:56.775Z,101120.69
2022-09-05T03:43:14.437Z,101111.78
2022-09-05T03:46:01.508Z,101113.00
2022-09-05T03:49:10.510Z,101119.38
2022-09-05T03:57:15.960Z,101133.38
2022-09-05T03:57:27.458Z,101126.19
2022-09-05T03:58:56.232Z,101120.75
2022-09-05T04:02:46.455Z,101113.44
2022-09-05T04:08:20.388Z,101115.84
2022-09-05T04:08:23.726Z,101111.38
2022-09-05T04:10:27.769Z,100880.22
2022-09-05T04:13:02.758Z,101083.75
2022-09-05T04:15:42.075Z,101116.22
2022-09-05T04:18:33.443Z,101128.50
2022-09-05T04:21:08.362Z,101079.22
2022-09-05T04:23:49.420Z,101121.31
2022-09-05T04:26:36.239Z,101116.88
2022-09-05T04:29:16.686Z,101127.66
2022-09-05T04:32:03.920Z,101013.03
2022-09-05T04:34:56.006Z,101127.34
2022-09-05T04:37:49.473Z,101127.94
2022-09-05T04:40:39.474Z,101117.00
2022-09-05T04:43:14.403Z,101129.63
2022-09-05T04:45:46.871Z,101139.22
2022-09-05T04:48:22.251Z,101140.69
2022-09-05T04:51:11.691Z,101131.41
2022-09-05T04:54:05.094Z,101122.75
2022-09-05T04:56:38.511Z,101124.38
2022-09-05T05:01:39.364Z,101135.72
2022-09-05T05:06:05.153Z,101134.81
2022-09-05T05:06:16.466Z,101142.50
2022-09-05T05:07:59.367Z,101141.66
2022-09-05T05:14:02.616Z,101135.47
2022-09-05T05:17:57.032Z,101124.28
2022-09-05T05:18:09.596Z,101151.78
2022-09-05T05:19:21.688Z,101136.41
2022-09-05T05:21:55.227Z,101129.63
2022-09-05T05:24:29.115Z,101141.91
2022-09-05T05:27:07.522Z,101156.03
2022-09-05T05:29:45.561Z,101146.63
2022-09-05T05:32:24.908Z,101059.22
2022-09-05T05:35:15.689Z,101132.94
2022-09-05T05:37:49.630Z,101127.81
2022-09-05T05:40:25.639Z,101136.00
2022-09-05T05:42:55.168Z,101140.66
2022-09-05T05:45:29.147Z,101079.47
2022-09-05T05:48:05.099Z,101150.34
2022-09-05T05:50:49.152Z,101149.41
2022-09-05T05:53:43.043Z,101145.41
2022-09-05T05:56:36.206Z,101143.09
2022-09-05T05:59:30.742Z,101144.72
2022-09-05T06:02:30.681Z,101150.69
2022-09-05T06:05:35.371Z,101135.81
2022-09-05T06:09:52.699Z,101153.81
2022-09-05T06:14:56.248Z,101144.97
2022-09-05T06:15:12.124Z,101133.63
2022-09-05T06:18:29.328Z,101150.38
2022-09-05T06:22:10.090Z,101161.38
2022-09-05T06:25:16.243Z,101154.97
2022-09-05T06:28:18.395Z,101160.25
2022-09-05T06:31:29.839Z,101169.28
2022-09-05T06:34:05.171Z,101195.84
2022-09-05T06:36:49.881Z,101220.16
2022-09-05T06:39:32.223Z,101217.72
2022-09-05T06:42:28.540Z,101220.91
2022-09-05T06:45:28.784Z,101222.41
2022-09-05T06:48:06.110Z,101230.97
2022-09-05T06:51:07.938Z,101220.84
2022-09-05T06:53:59.329Z,101235.03
2022-09-05T06:56:47.243Z,101228.47
2022-09-05T07:00:02.573Z,101240.31
2022-09-05T07:02:58.858Z,101220.50
2022-09-05T07:05:40.082Z,101217.53
2022-09-05T07:08:36.419Z,101175.31
2022-09-05T07:11:16.616Z,101167.78
2022-09-05T07:14:01.506Z,101182.41
2022-09-05T07:16:41.045Z,101184.59
2022-09-05T07:19:27.201Z,101192.19
2022-09-05T07:22:33.450Z,101250.38
2022-09-05T07:25:08.813Z,101285.50
2022-09-05T07:28:26.369Z,101290.28
2022-09-05T07:30:32.529Z,101293.00
2022-09-05T07:33:04.211Z,101286.91
2022-09-05T07:35:41.636Z,101294.59
2022-09-05T07:38:17.065Z,101311.50
2022-09-05T07:40:54.276Z,101275.34
2022-09-05T07:43:28.033Z,101281.34
2022-09-05T07:46:11.651Z,101290.94
2022-09-05T07:48:49.581Z,101252.81
2022-09-05T07:56:46.939Z,101253.28
2022-09-05T07:57:02.367Z,101246.00
2022-09-05T07:57:31.779Z,101241.53
2022-09-05T08:00:08.376Z,101229.53
2022-09-05T08:03:01.198Z,101214.25
2022-09-05T08:05:40.544Z,101201.75
2022-09-05T08:08:17.735Z,101219.00
2022-09-05T08:11:25.058Z,101210.41
2022-09-05T08:13:57.799Z,101201.75
2022-09-05T08:16:43.549Z,101222.28
2022-09-05T08:19:43.356Z,101232.16
2022-09-05T08:22:21.392Z,101213.78
2022-09-05T08:25:00.970Z,101206.97
2022-09-05T08:27:37.785Z,101217.88
2022-09-05T08:30:27.470Z,101191.41
2022-09-05T08:33:10.240Z,101212.56
2022-09-05T08:35:45.465Z,101209.09
2022-09-05T08:38:17.166Z,101215.59
2022-09-05T08:40:59.801Z,101189.22
2022-09-05T08:46:38.064Z,101221.31
2022-09-05T08:46:43.591Z,101206.94
2022-09-05T08:49:52.658Z,101217.84
2022-09-05T08:52:31.682Z,101211.91
2022-09-05T08:55:12.804Z,101165.72
2022-09-05T08:58:12.204Z,101197.34
2022-09-05T09:00:55.593Z,101120.47
2022-09-05T09:03:33.760Z,101208.34
2022-09-05T09:06:21.697Z,101192.72
2022-09-05T09:09:18.610Z,101196.78
2022-09-05T09:11:55.386Z,101201.84
2022-09-05T09:14:59.454Z,101199.16
2022-09-05T09:17:43.995Z,101198.50
2022-09-05T09:20:37.495Z,101197.84
2022-09-05T09:23:32.041Z,101186.59
2022-09-05T09:26:13.495Z,101169.78
2022-09-05T09:28:51.773Z,101205.03
2022-09-05T09:31:44.379Z,101141.44
2022-09-05T09:34:36.779Z,101193.38
2022-09-05T09:37:51.911Z,101185.34
2022-09-05T09:40:52.237Z,101174.75
2022-09-05T09:43:39.285Z,101166.63
2022-09-05T09:46:18.411Z,101162.47
2022-09-05T09:49:23.082Z,101157.69
2022-09-05T09:52:22.150Z,101132.69
2022-09-05T09:55:41.278Z,101153.06
2022-09-05T09:58:36.721Z,101133.13
2022-09-05T10:01:21.609Z,101135.50
2022-09-05T10:10:36.428Z,101135.91
2022-09-05T10:10:45.889Z,101148.94
2022-09-05T10:11:51.987Z,101163.31
2022-09-05T10:14:56.812Z,101192.63
2022-09-05T10:17:55.222Z,101222.09
2022-09-05T10:21:15.555Z,101212.47
2022-09-05T10:23:58.650Z,101203.69
2022-09-05T10:27:20.847Z,101181.66
2022-09-05T10:30:12.181Z,101179.94
2022-09-05T10:35:04.804Z,101171.31
2022-09-05T10:35:50.464Z,101170.44
2022-09-05T10:38:26.359Z,101167.38
2022-09-05T10:41:03.278Z,101171.75
2022-09-05T10:43:54.935Z,101165.44
2022-09-05T10:46:50.050Z,101157.28
2022-09-05T10:49:27.316Z,101158.81
2022-09-05T10:52:18.695Z,101157.66
2022-09-05T10:55:13.988Z,101143.25
2022-09-05T10:57:57.612Z,101098.53
2022-09-05T11:02:23.723Z,101148.69
2022-09-05T11:03:46.866Z,101152.53
2022-09-05T11:06:20.933Z,101138.56
2022-09-05T11:09:06.922Z,101137.88
2022-09-05T11:11:46.155Z,101140.66
2022-09-05T11:14:35.298Z,101139.25
2022-09-05T11:17:16.123Z,101138.63
2022-09-05T11:19:49.554Z,101148.41
2022-09-05T11:22:23.683Z,101141.78
2022-09-05T11:24:59.132Z,101132.66
2022-09-05T11:27:34.087Z,101125.63
2022-09-05T11:30:07.113Z,101128.03
2022-09-05T11:39:42.475Z,101127.47
2022-09-05T11:39:58.054Z,101120.72
2022-09-05T11:40:07.051Z,101131.94
2022-09-05T11:42:48.943Z,101110.22
2022-09-05T11:45:39.453Z,101101.47
2022-09-05T11:48:47.906Z,101124.53
2022-09-05T11:51:59.566Z,101116.59
2022-09-05T11:55:08.133Z,101059.91
2022-09-05T11:58:44.623Z,101105.16
2022-09-05T12:01:43.469Z,101109.53
2022-09-05T12:04:29.593Z,101086.91
2022-09-05T12:07:32.900Z,101107.44
2022-09-05T12:10:46.621Z,101101.13
2022-09-05T12:13:32.556Z,101109.81
2022-09-05T12:16:10.375Z,101114.28
2022-09-05T12:18:48.673Z,101119.50
2022-09-05T12:21:29.832Z,101112.81
2022-09-05T12:27:41.240Z,101113.56
2022-09-05T12:30:00.698Z,101096.59
2022-09-05T12:33:47.916Z,101108.47
2022-09-05T12:36:10.009Z,101067.25
2022-09-05T12:40:04.908Z,101096.63
2022-09-05T12:41:41.475Z,101087.31
2022-09-05T12:41:44.996Z,101101.13
2022-09-05T12:44:41.235Z,101096.44
2022-09-05T12:47:18.518Z,101080.13
2022-09-05T12:50:03.436Z,101088.19
2022-09-05T12:52:46.755Z,101002.66
2022-09-05T12:55:27.333Z,101082.34
2022-09-05T13:03:09.384Z,101084.00
2022-09-05T13:03:09.503Z,101026.84
2022-09-05T13:04:15.839Z,101088.06
2022-09-05T13:06:45.452Z,101082.19
2022-09-05T13:09:22.898Z,101100.22
2022-09-05T13:14:54.911Z,101087.78
2022-09-05T13:15:21.507Z,101090.38
2022-09-05T13:18:00.395Z,101088.50
2022-09-05T13:20:36.920Z,101091.03
2022-09-05T13:23:20.309Z,101098.13
2022-09-05T13:25:58.626Z,101084.03
2022-09-05T13:28:35.462Z,101050.19
2022-09-05T13:37:58.606Z,101096.06
2022-09-05T13:38:10.750Z,101090.94
2022-09-05T13:38:17.823Z,101087.78
2022-09-05T13:39:50.572Z,101081.91
2022-09-05T13:42:23.068Z,101082.28
2022-09-05T13:44:56.585Z,101083.81
2022-09-05T13:47:56.381Z,101062.94
2022-09-05T13:50:28.780Z,101058.88
2022-09-05T13:53:04.957Z,101097.31
2022-09-05T13:55:42.908Z,101035.41
2022-09-05T13:58:17.732Z,101093.53
2022-09-05T14:01:19.036Z,101091.56
2022-09-05T14:07:46.767Z,101099.31
2022-09-05T14:10:55.253Z,101092.81
2022-09-05T14:13:28.329Z,101105.38
2022-09-05T14:16:00.804Z,101111.88
2022-09-05T14:18:55.591Z,101100.78
2022-09-05T14:21:27.827Z,101082.34
2022-09-05T14:24:03.405Z,101099.69
2022-09-05T14:26:42.419Z,101097.63
2022-09-05T14:29:18.692Z,101101.66
2022-09-05T14:37:34.751Z,101095.91
2022-09-05T14:37:44.461Z,101094.91
2022-09-05T14:38:09.685Z,101122.31
2022-09-05T14:41:29.170Z,101110.88
2022-09-05T14:44:37.862Z,101108.78
2022-09-05T14:47:42.531Z,101105.28
2022-09-05T14:50:27.693Z,101106.13
2022-09-05T14:56:23.175Z,101111.19
2022-09-05T15:02:56.710Z,101102.13
2022-09-05T15:02:57.790Z,101103.81
2022-09-05T15:04:45.386Z,101110.34
2022-09-05T15:07:21.931Z,101115.13
2022-09-05T15:12:15.727Z,101106.19
2022-09-05T15:13:03.456Z,101111.16
2022-09-05T15:18:03.051Z,101054.41
2022-09-05T15:20:37.347Z,101114.34
2022-09-05T15:23:11.324Z,101111.25
2022-09-05T15:25:49.711Z,101117.31
2022-09-05T15:28:31.717Z,101112.91
2022-09-05T15:31:05.089Z,101122.28
2022-09-05T15:33:34.298Z,101120.22
2022-09-05T15:36:06.870Z,101100.22
2022-09-05T15:38:54.453Z,101115.94
2022-09-05T15:41:26.634Z,101108.81
2022-09-05T15:44:00.173Z,101124.88
2022-09-05T15:46:49.462Z,101068.22
2022-09-05T15:49:33.265Z,101105.94
2022-09-05T15:52:07.531Z,101114.56
2022-09-05T15:54:40.484Z,101107.81
2022-09-05T15:57:17.653Z,101112.38
2022-09-05T15:59:53.924Z,101111.50
2022-09-05T16:02:26.387Z,101115.41
2022-09-05T16:10:35.642Z,101100.19
2022-09-05T16:10:42.220Z,101116.53
2022-09-05T16:11:37.042Z,101116.97
2022-09-05T16:13:51.997Z,101116.69
2022-09-05T16:23:14.891Z,101126.31
2022-09-05T16:23:16.571Z,101126.19
2022-09-05T16:23:24.772Z,101123.63
2022-09-05T16:25:17.579Z,101123.03
2022-09-05T16:27:53.652Z,101138.78
2022-09-05T16:30:25.219Z,101133.75
2022-09-05T16:33:01.737Z,101125.63
2022-09-05T16:35:35.182Z,101141.19
2022-09-05T16:38:09.859Z,101146.16
2022-09-05T16:40:43.764Z,101140.88
2022-09-05T16:43:19.531Z,101139.28
2022-09-05T16:45:56.435Z,101140.69
2022-09-05T16:48:40.736Z,101145.34
2022-09-05T16:51:35.065Z,101074.97
2022-09-05T16:54:12.447Z,101156.34
2022-09-05T16:56:46.606Z,101160.88
2022-09-05T16:59:19.307Z,101154.19
2022-09-05T17:02:06.312Z,101154.59
2022-09-05T17:05:03.238Z,101156.56
2022-09-05T17:07:53.696Z,101171.91
2022-09-05T17:10:27.153Z,101168.31
2022-09-05T17:12:57.919Z,101146.03
2022-09-05T17:15:30.759Z,101179.78
2022-09-05T17:18:22.436Z,101165.69
2022-09-05T17:20:58.580Z,101183.38
2022-09-05T17:29:21.169Z,101187.97
2022-09-05T17:29:30.257Z,101189.50
2022-09-05T17:31:20.883Z,101190.66
2022-09-05T17:32:54.563Z,101196.03
2022-09-05T17:35:43.624Z,101198.00
2022-09-05T17:39:00.802Z,101196.88
2022-09-05T17:42:02.280Z,101187.28
2022-09-05T17:44:42.915Z,101210.28
2022-09-05T17:47:35.514Z,101192.16
2022-09-05T17:50:16.823Z,101194.34
2022-09-05T17:53:26.420Z,101209.97
2022-09-05T17:56:14.887Z,101209.69
2022-09-05T17:59:03.883Z,101209.09
2022-09-05T18:01:35.115Z,101217.22
2022-09-05T18:04:17.082Z,101193.31
2022-09-05T18:06:59.235Z,101213.81
2022-09-05T18:10:14.579Z,101225.66
2022-09-05T18:13:31.628Z,101207.38
2022-09-05T18:16:11.733Z,101221.69
2022-09-05T18:19:32.910Z,101219.97
2022-09-05T18:21:50.032Z,101225.94
2022-09-05T18:24:32.774Z,101214.66
2022-09-05T18:27:35.114Z,101223.97
2022-09-05T18:30:01.761Z,101217.69
2022-09-05T18:32:45.549Z,101220.81
2022-09-05T18:35:36.899Z,101220.81
2022-09-05T18:38:50.459Z,101214.13
2022-09-05T18:41:19.299Z,101224.00
2022-09-05T18:44:13.523Z,101222.78
2022-09-05T18:46:52.768Z,101219.84
2022-09-05T18:50:25.608Z,101213.28
2022-09-05T18:52:23.390Z,101187.81
2022-09-05T18:55:46.357Z,101118.03
2022-09-05T18:57:52.479Z,101196.41
2022-09-05T19:00:44.572Z,101220.06
2022-09-05T19:03:19.605Z,101216.53
2022-09-05T19:06:34.295Z,101216.16
2022-09-05T19:08:56.339Z,101208.75
2022-09-05T19:11:31.871Z,101212.31
2022-09-05T19:14:26.722Z,101217.31
2022-09-05T19:17:09.942Z,101197.56
2022-09-05T19:20:31.877Z,101213.66
2022-09-05T19:23:10.595Z,101220.00
2022-09-05T19:25:45.293Z,101218.66
2022-09-05T19:36:46.080Z,101219.41
2022-09-05T19:36:46.724Z,101218.75
2022-09-05T19:36:59.028Z,101219.41
2022-09-05T19:43:28.361Z,101230.47
2022-09-05T19:47:39.300Z,101217.19
2022-09-05T19:47:51.105Z,101230.59
2022-09-05T19:48:27.478Z,101227.84
2022-09-05T19:50:58.269Z,101226.59
2022-09-05T19:53:27.428Z,101221.00
2022-09-05T19:55:56.590Z,101224.91
2022-09-05T19:58:25.771Z,101230.69
2022-09-05T20:01:05.152Z,101234.13
2022-09-05T20:03:39.454Z,101225.81
2022-09-05T20:06:30.032Z,101221.91
2022-09-05T20:09:14.929Z,101223.13
2022-09-05T20:11:49.637Z,101225.06
2022-09-05T20:14:22.016Z,101228.19
2022-09-05T20:16:55.969Z,101238.09
2022-09-05T20:19:28.744Z,101221.47
2022-09-05T20:22:46.667Z,101223.09
2022-09-05T20:24:55.915Z,101206.53
2022-09-05T20:27:28.288Z,101225.97
2022-09-05T20:30:00.461Z,101231.31
2022-09-05T20:32:39.479Z,101227.84
2022-09-05T20:39:01.011Z,101238.47
2022-09-05T20:43:11.526Z,101213.16
2022-09-05T20:43:21.750Z,101237.47
2022-09-05T20:44:19.253Z,101233.81
2022-09-05T20:50:45.663Z,101239.00
2022-09-05T20:54:19.067Z,101246.81
2022-09-05T20:54:27.128Z,101251.91
2022-09-05T20:55:41.346Z,101233.34
2022-09-05T20:58:14.211Z,101249.19
2022-09-05T21:01:19.758Z,101175.88
2022-09-05T21:03:40.963Z,101250.69
2022-09-05T21:06:23.635Z,101185.63
2022-09-05T21:08:56.111Z,101247.28
2022-09-05T21:11:33.785Z,101248.38
2022-09-05T21:14:05.523Z,101249.88
2022-09-05T21:16:38.571Z,101209.69
2022-09-05T21:19:07.854Z,101252.75
2022-09-05T21:21:38.045Z,101248.63
2022-09-05T21:24:17.360Z,101229.66
2022-09-05T21:26:49.424Z,101256.53
2022-09-05T21:29:32.566Z,101262.94
2022-09-05T21:32:05.597Z,101262.44
2022-09-05T21:34:45.794Z,101249.91
2022-09-05T21:37:17.932Z,101261.91
2022-09-05T21:39:59.793Z,101254.41
2022-09-05T21:47:17.222Z,101256.13
2022-09-05T21:47:49.091Z,101248.44
2022-09-05T21:48:13.290Z,101254.63
2022-09-05T21:50:46.504Z,101258.06
2022-09-05T21:55:59.495Z,101257.19
2022-09-05T21:59:19.660Z,101253.53
2022-09-05T21:59:29.834Z,101256.41
2022-09-05T22:01:58.866Z,101257.59
2022-09-05T22:04:28.785Z,101253.09
2022-09-05T22:07:02.318Z,101151.44
2022-09-05T22:09:32.835Z,101255.66
2022-09-05T22:12:06.133Z,101255.94
2022-09-05T22:14:47.043Z,101240.22
2022-09-05T22:17:17.392Z,101249.78
2022-09-05T22:19:46.899Z,101252.25
2022-09-05T22:22:17.830Z,101255.44
2022-09-05T22:24:53.641Z,101242.38
2022-09-05T22:27:24.151Z,101249.19
2022-09-05T22:29:53.312Z,101242.13
2022-09-05T22:32:34.515Z,101246.84
2022-09-05T22:35:27.976Z,101236.09
2022-09-05T22:38:01.250Z,101247.41
2022-09-05T22:40:32.332Z,101251.00
2022-09-05T22:43:02.844Z,101250.81
2022-09-05T22:45:35.912Z,101224.94
2022-09-05T22:48:08.386Z,101237.50
2022-09-05T22:50:38.744Z,101231.31
2022-09-05T22:53:09.842Z,101242.13
2022-09-05T22:55:42.573Z,101237.75
2022-09-05T22:58:13.777Z,101201.31
2022-09-05T23:00:44.700Z,101247.28
2022-09-05T23:03:13.759Z,101236.53
2022-09-05T23:05:42.803Z,101231.84
2022-09-05T23:08:11.813Z,101235.28
2022-09-05T23:10:42.025Z,101166.22
2022-09-05T23:13:12.180Z,101234.91
2022-09-05T23:15:41.205Z,101234.38
2022-09-05T23:18:10.021Z,101229.22
2022-09-05T23:20:38.848Z,101220.47
2022-09-05T23:23:08.529Z,101236.28
2022-09-05T23:25:37.560Z,101230.28
2022-09-05T23:28:09.280Z,101228.09
2022-09-05T23:30:38.924Z,101229.53
2022-09-05T23:33:09.553Z,101159.97
2022-09-05T23:35:38.803Z,101224.50
2022-09-05T23:38:10.567Z,101228.59
2022-09-05T23:40:39.870Z,101233.28
2022-09-05T23:43:10.198Z,101230.03
2022-09-05T23:45:39.155Z,101231.28
2022-09-05T23:48:08.180Z,101234.41
2022-09-05T23:50:37.075Z,101234.88
2022-09-05T23:53:05.969Z,101240.44
2022-09-05T23:55:34.899Z,101239.47
2022-09-05T23:58:03.790Z,101241.81
